sensor_id;sensor_type;location;lat;lon;timestamp;P1;durP1;ratioP1;P2;durP2;ratioP2
45043;SDS011;30784;48.490;9.688;2022-12-18T00:02:05;28.00;;;11.93;;
45043;SDS011;30784;48.490;9.688;2022-12-18T00:04:31;47.60;;;12.23;;
45043;SDS011;30784;48.490;9.688;2022-12-18T00:06:56;28.58;;;10.75;;
45043;SDS011;30784;48.490;9.688;2022-12-18T00:09:22;33.58;;;12.13;;
45043;SDS011;30784;48.490;9.688;2022-12-18T00:11:47;31.65;;;11.80;;
45043;SDS011;30784;48.490;9.688;2022-12-18T00:14:13;27.75;;;11.20;;
45043;SDS011;30784;48.490;9.688;2022-12-18T00:16:39;28.30;;;11.40;;
45043;SDS011;30784;48.490;9.688;2022-12-18T00:19:08;28.20;;;10.68;;
45043;SDS011;30784;48.490;9.688;2022-12-18T00:21:35;30.80;;;11.50;;
45043;SDS011;30784;48.490;9.688;2022-12-18T00:24:01;32.72;;;11.52;;
45043;SDS011;30784;48.490;9.688;2022-12-18T00:26:29;37.75;;;13.10;;
45043;SDS011;30784;48.490;9.688;2022-12-18T00:29:00;33.38;;;12.20;;
45043;SDS011;30784;48.490;9.688;2022-12-18T00:31:28;42.65;;;11.80;;
45043;SDS011;30784;48.490;9.688;2022-12-18T00:33:54;36.83;;;12.05;;
45043;SDS011;30784;48.490;9.688;2022-12-18T00:36:22;26.65;;;11.05;;
45043;SDS011;30784;48.490;9.688;2022-12-18T00:38:49;36.45;;;12.55;;
45043;SDS011;30784;48.490;9.688;2022-12-18T00:41:15;37.50;;;12.80;;
45043;SDS011;30784;48.490;9.688;2022-12-18T00:44:00;33.28;;;11.32;;
45043;SDS011;30784;48.490;9.688;2022-12-18T00:46:26;29.85;;;10.93;;
45043;SDS011;30784;48.490;9.688;2022-12-18T00:48:52;33.75;;;10.88;;
45043;SDS011;30784;48.490;9.688;2022-12-18T00:51:17;38.13;;;12.77;;
45043;SDS011;30784;48.490;9.688;2022-12-18T00:53:43;45.80;;;12.57;;
45043;SDS011;30784;48.490;9.688;2022-12-18T00:56:08;38.53;;;13.35;;
45043;SDS011;30784;48.490;9.688;2022-12-18T00:58:34;39.10;;;12.27;;
45043;SDS011;30784;48.490;9.688;2022-12-18T01:00:59;61.38;;;14.05;;
45043;SDS011;30784;48.490;9.688;2022-12-18T01:03:25;37.65;;;13.77;;
45043;SDS011;30784;48.490;9.688;2022-12-18T01:05:51;38.55;;;12.20;;
45043;SDS011;30784;48.490;9.688;2022-12-18T01:08:16;47.92;;;12.38;;
45043;SDS011;30784;48.490;9.688;2022-12-18T01:10:42;45.40;;;12.98;;
45043;SDS011;30784;48.490;9.688;2022-12-18T01:13:07;59.78;;;13.88;;
45043;SDS011;30784;48.490;9.688;2022-12-18T01:15:33;42.55;;;12.07;;
45043;SDS011;30784;48.490;9.688;2022-12-18T01:17:58;39.63;;;12.18;;
45043;SDS011;30784;48.490;9.688;2022-12-18T01:20:24;104.32;;;13.23;;
45043;SDS011;30784;48.490;9.688;2022-12-18T01:22:49;67.05;;;12.35;;
45043;SDS011;30784;48.490;9.688;2022-12-18T01:25:15;68.00;;;13.68;;
45043;SDS011;30784;48.490;9.688;2022-12-18T01:27:40;80.93;;;13.15;;
45043;SDS011;30784;48.490;9.688;2022-12-18T01:30:06;59.42;;;12.48;;
45043;SDS011;30784;48.490;9.688;2022-12-18T01:32:32;60.00;;;14.30;;
45043;SDS011;30784;48.490;9.688;2022-12-18T01:34:58;64.50;;;14.13;;
45043;SDS011;30784;48.490;9.688;2022-12-18T01:37:23;38.72;;;12.18;;
45043;SDS011;30784;48.490;9.688;2022-12-18T01:39:49;44.13;;;11.93;;
45043;SDS011;30784;48.490;9.688;2022-12-18T01:42:15;42.65;;;11.82;;
45043;SDS011;30784;48.490;9.688;2022-12-18T01:47:40;36.00;;;11.18;;
45043;SDS011;30784;48.490;9.688;2022-12-18T01:52:42;37.05;;;11.48;;
45043;SDS011;30784;48.490;9.688;2022-12-18T01:55:11;28.40;;;10.38;;
45043;SDS011;30784;48.490;9.688;2022-12-18T01:57:39;34.08;;;12.13;;
45043;SDS011;30784;48.490;9.688;2022-12-18T02:00:11;41.60;;;12.07;;
45043;SDS011;30784;48.490;9.688;2022-12-18T02:02:42;47.33;;;11.65;;
45043;SDS011;30784;48.490;9.688;2022-12-18T02:05:10;25.80;;;10.02;;
45043;SDS011;30784;48.490;9.688;2022-12-18T02:07:55;38.92;;;11.15;;
45043;SDS011;30784;48.490;9.688;2022-12-18T02:10:56;46.65;;;12.07;;
45043;SDS011;30784;48.490;9.688;2022-12-18T02:16:12;46.45;;;12.45;;
45043;SDS011;30784;48.490;9.688;2022-12-18T02:25:05;41.00;;;11.57;;
45043;SDS011;30784;48.490;9.688;2022-12-18T02:27:45;50.50;;;12.48;;
45043;SDS011;30784;48.490;9.688;2022-12-18T02:32:43;55.65;;;11.68;;
45043;SDS011;30784;48.490;9.688;2022-12-18T02:35:13;45.70;;;12.23;;
45043;SDS011;30784;48.490;9.688;2022-12-18T20:11:06;32.45;;;12.65;;
45043;SDS011;30784;48.490;9.688;2022-12-18T20:13:32;35.75;;;13.15;;
45043;SDS011;30784;48.490;9.688;2022-12-18T20:15:58;34.88;;;13.18;;
45043;SDS011;30784;48.490;9.688;2022-12-18T20:18:24;31.30;;;12.15;;
45043;SDS011;30784;48.490;9.688;2022-12-18T20:20:50;37.85;;;14.80;;
45043;SDS011;30784;48.490;9.688;2022-12-18T20:23:16;33.95;;;13.65;;
45043;SDS011;30784;48.490;9.688;2022-12-18T20:25:42;34.35;;;13.05;;
45043;SDS011;30784;48.490;9.688;2022-12-18T20:28:08;33.15;;;12.50;;
45043;SDS011;30784;48.490;9.688;2022-12-18T20:30:33;33.10;;;12.32;;
45043;SDS011;30784;48.490;9.688;2022-12-18T20:32:59;31.90;;;12.25;;
45043;SDS011;30784;48.490;9.688;2022-12-18T20:35:25;31.40;;;11.60;;
45043;SDS011;30784;48.490;9.688;2022-12-18T20:37:52;31.92;;;11.73;;
45043;SDS011;30784;48.490;9.688;2022-12-18T20:40:19;32.58;;;11.95;;
45043;SDS011;30784;48.490;9.688;2022-12-18T20:42:46;30.58;;;12.18;;
45043;SDS011;30784;48.490;9.688;2022-12-18T20:45:11;30.77;;;11.43;;
45043;SDS011;30784;48.490;9.688;2022-12-18T20:47:37;30.58;;;12.30;;
45043;SDS011;30784;48.490;9.688;2022-12-18T20:50:03;31.23;;;12.90;;
45043;SDS011;30784;48.490;9.688;2022-12-18T20:52:29;32.63;;;12.40;;
45043;SDS011;30784;48.490;9.688;2022-12-18T20:54:54;31.52;;;12.07;;
45043;SDS011;30784;48.490;9.688;2022-12-18T20:57:20;30.00;;;12.35;;
45043;SDS011;30784;48.490;9.688;2022-12-18T20:59:46;30.58;;;10.93;;
45043;SDS011;30784;48.490;9.688;2022-12-18T21:02:12;27.52;;;10.55;;
45043;SDS011;30784;48.490;9.688;2022-12-18T21:04:38;30.38;;;11.57;;
45043;SDS011;30784;48.490;9.688;2022-12-18T21:07:04;29.60;;;11.00;;
45043;SDS011;30784;48.490;9.688;2022-12-18T21:09:30;30.77;;;12.05;;
45043;SDS011;30784;48.490;9.688;2022-12-18T21:11:56;32.35;;;13.60;;
45043;SDS011;30784;48.490;9.688;2022-12-18T21:14:41;27.40;;;10.98;;
45043;SDS011;30784;48.490;9.688;2022-12-18T21:17:07;28.42;;;11.73;;
45043;SDS011;30784;48.490;9.688;2022-12-18T21:19:33;27.83;;;10.95;;
45043;SDS011;30784;48.490;9.688;2022-12-18T21:21:58;30.98;;;13.52;;
45043;SDS011;30784;48.490;9.688;2022-12-18T21:24:24;27.23;;;11.65;;
45043;SDS011;30784;48.490;9.688;2022-12-18T21:26:50;27.60;;;11.95;;
45043;SDS011;30784;48.490;9.688;2022-12-18T21:29:18;26.13;;;11.32;;
45043;SDS011;30784;48.490;9.688;2022-12-18T21:31:45;28.92;;;12.35;;
45043;SDS011;30784;48.490;9.688;2022-12-18T21:34:15;31.35;;;11.98;;
45043;SDS011;30784;48.490;9.688;2022-12-18T21:36:46;28.08;;;11.45;;
45043;SDS011;30784;48.490;9.688;2022-12-18T21:39:12;40.33;;;15.70;;
45043;SDS011;30784;48.490;9.688;2022-12-18T21:41:39;35.85;;;14.82;;
45043;SDS011;30784;48.490;9.688;2022-12-18T21:44:23;36.45;;;14.30;;
45043;SDS011;30784;48.490;9.688;2022-12-18T21:46:49;32.03;;;13.50;;
45043;SDS011;30784;48.490;9.688;2022-12-18T21:49:15;29.95;;;12.15;;
45043;SDS011;30784;48.490;9.688;2022-12-18T21:51:42;29.63;;;11.00;;
45043;SDS011;30784;48.490;9.688;2022-12-18T21:54:08;27.23;;;10.95;;
45043;SDS011;30784;48.490;9.688;2022-12-18T21:59:27;28.95;;;11.65;;
45043;SDS011;30784;48.490;9.688;2022-12-18T22:01:57;30.73;;;11.32;;
45043;SDS011;30784;48.490;9.688;2022-12-18T22:04:25;29.30;;;11.93;;
45043;SDS011;30784;48.490;9.688;2022-12-18T22:06:51;28.05;;;11.88;;
45043;SDS011;30784;48.490;9.688;2022-12-18T22:09:17;26.65;;;11.77;;
45043;SDS011;30784;48.490;9.688;2022-12-18T22:11:45;32.15;;;12.13;;
45043;SDS011;30784;48.490;9.688;2022-12-18T22:14:11;29.40;;;12.38;;
45043;SDS011;30784;48.490;9.688;2022-12-18T22:16:37;31.77;;;13.88;;
45043;SDS011;30784;48.490;9.688;2022-12-18T22:19:03;40.50;;;15.23;;
45043;SDS011;30784;48.490;9.688;2022-12-18T22:21:30;57.78;;;18.85;;
45043;SDS011;30784;48.490;9.688;2022-12-18T22:23:58;43.85;;;16.10;;
45043;SDS011;30784;48.490;9.688;2022-12-18T22:26:26;40.65;;;15.05;;
45043;SDS011;30784;48.490;9.688;2022-12-18T22:28:53;48.30;;;15.65;;
45043;SDS011;30784;48.490;9.688;2022-12-18T22:31:37;36.13;;;12.77;;
45043;SDS011;30784;48.490;9.688;2022-12-18T22:34:03;26.73;;;10.63;;
45043;SDS011;30784;48.490;9.688;2022-12-18T22:36:36;48.17;;;15.52;;
45043;SDS011;30784;48.490;9.688;2022-12-18T22:39:09;44.22;;;13.55;;
45043;SDS011;30784;48.490;9.688;2022-12-18T22:41:37;95.80;;;20.42;;
45043;SDS011;30784;48.490;9.688;2022-12-18T22:44:02;50.85;;;15.70;;
45043;SDS011;30784;48.490;9.688;2022-12-18T22:46:32;34.85;;;11.82;;
45043;SDS011;30784;48.490;9.688;2022-12-18T22:49:00;29.25;;;11.15;;
45043;SDS011;30784;48.490;9.688;2022-12-18T22:51:26;22.27;;;9.25;;
45043;SDS011;30784;48.490;9.688;2022-12-18T22:53:52;24.23;;;9.82;;
45043;SDS011;30784;48.490;9.688;2022-12-18T22:56:17;29.45;;;11.57;;
45043;SDS011;30784;48.490;9.688;2022-12-18T22:58:46;24.73;;;10.68;;
45043;SDS011;30784;48.490;9.688;2022-12-18T23:01:16;19.65;;;8.60;;
45043;SDS011;30784;48.490;9.688;2022-12-18T23:03:47;22.60;;;9.75;;
45043;SDS011;30784;48.490;9.688;2022-12-18T23:06:13;20.63;;;8.88;;
45043;SDS011;30784;48.490;9.688;2022-12-18T23:08:39;19.17;;;8.73;;
45043;SDS011;30784;48.490;9.688;2022-12-18T23:11:05;21.67;;;8.57;;
45043;SDS011;30784;48.490;9.688;2022-12-18T23:13:31;25.55;;;10.52;;
45043;SDS011;30784;48.490;9.688;2022-12-18T23:15:58;23.20;;;9.20;;
45043;SDS011;30784;48.490;9.688;2022-12-18T23:18:24;20.77;;;9.27;;
45043;SDS011;30784;48.490;9.688;2022-12-18T23:20:49;20.85;;;9.18;;
45043;SDS011;30784;48.490;9.688;2022-12-18T23:23:15;21.48;;;8.80;;
45043;SDS011;30784;48.490;9.688;2022-12-18T23:25:41;23.67;;;10.15;;
45043;SDS011;30784;48.490;9.688;2022-12-18T23:28:06;20.17;;;8.50;;
45043;SDS011;30784;48.490;9.688;2022-12-18T23:30:32;21.13;;;9.35;;
45043;SDS011;30784;48.490;9.688;2022-12-18T23:32:58;21.50;;;9.38;;
45043;SDS011;30784;48.490;9.688;2022-12-18T23:35:24;21.85;;;9.00;;
45043;SDS011;30784;48.490;9.688;2022-12-18T23:37:49;22.08;;;9.52;;
45043;SDS011;30784;48.490;9.688;2022-12-18T23:40:15;21.63;;;9.40;;
45043;SDS011;30784;48.490;9.688;2022-12-18T23:42:40;24.42;;;10.40;;
45043;SDS011;30784;48.490;9.688;2022-12-18T23:45:06;21.05;;;8.82;;
45043;SDS011;30784;48.490;9.688;2022-12-18T23:47:33;24.88;;;11.57;;
45043;SDS011;30784;48.490;9.688;2022-12-18T23:49:59;20.25;;;9.10;;
45043;SDS011;30784;48.490;9.688;2022-12-18T23:52:24;25.17;;;10.38;;
45043;SDS011;30784;48.490;9.688;2022-12-18T23:54:50;21.08;;;10.05;;
45043;SDS011;30784;48.490;9.688;2022-12-18T23:57:15;24.42;;;10.70;;
45043;SDS011;30784;48.490;9.688;2022-12-18T23:59:42;22.75;;;10.50;;
